createdAt,value
2023-05-14T00:02:26.789Z,4.80
2023-05-14T00:04:54.619Z,5.22
2023-05-14T00:07:22.426Z,4.55
2023-05-14T00:09:50.228Z,4.35
2023-05-14T00:12:18.039Z,3.58
2023-05-14T00:14:45.816Z,3.13
2023-05-14T00:17:13.560Z,3.42
2023-05-14T00:19:42.022Z,2.95
2023-05-14T00:22:09.988Z,5.82
2023-05-14T00:24:38.184Z,4.50
2023-05-14T00:27:07.275Z,3.38
2023-05-14T00:29:35.033Z,3.10
2023-05-14T00:32:04.220Z,2.90
2023-05-14T00:34:32.190Z,3.25
2023-05-14T00:37:00.098Z,3.53
2023-05-14T00:39:28.026Z,3.10
2023-05-14T00:41:55.866Z,3.25
2023-05-14T00:44:23.773Z,2.90
2023-05-14T00:46:52.538Z,3.08
2023-05-14T00:49:21.148Z,2.67
2023-05-14T00:51:49.005Z,2.85
2023-05-14T00:54:17.460Z,2.92
2023-05-14T00:56:46.890Z,3.03
2023-05-14T00:59:14.810Z,2.75
2023-05-14T01:01:43.163Z,2.80
2023-05-14T01:04:11.819Z,2.58
2023-05-14T01:06:59.092Z,2.65
2023-05-14T01:09:50.508Z,2.80
2023-05-14T01:12:37.850Z,3.00
2023-05-14T01:15:19.580Z,3.30
2023-05-14T01:20:23.321Z,2.53
2023-05-14T01:22:51.260Z,2.97
2023-05-14T01:25:19.203Z,2.50
2023-05-14T01:28:21.064Z,2.10
2023-05-14T01:31:04.118Z,2.13
2023-05-14T01:33:35.374Z,2.38
2023-05-14T01:36:03.714Z,2.50
2023-05-14T01:38:34.256Z,2.20
2023-05-14T01:41:03.289Z,2.20
2023-05-14T01:43:31.833Z,1.98
2023-05-14T01:45:59.675Z,2.72
2023-05-14T01:48:29.912Z,2.20
2023-05-14T01:50:57.887Z,2.20
2023-05-14T01:53:26.149Z,2.25
2023-05-14T01:55:53.937Z,2.33
2023-05-14T01:58:21.817Z,2.55
2023-05-14T02:00:49.590Z,2.30
2023-05-14T02:03:17.327Z,2.40
2023-05-14T02:05:45.483Z,2.20
2023-05-14T02:08:13.209Z,2.25
2023-05-14T02:10:41.173Z,2.10
2023-05-14T02:13:09.737Z,2.53
2023-05-14T02:15:38.347Z,2.70
2023-05-14T02:18:06.373Z,2.30
2023-05-14T02:20:34.348Z,2.30
2023-05-14T02:23:02.198Z,2.55
2023-05-14T02:25:30.125Z,2.33
2023-05-14T02:27:57.972Z,2.70
2023-05-14T02:30:26.018Z,3.38
2023-05-14T02:32:54.231Z,2.97
2023-05-14T02:35:22.860Z,2.75
2023-05-14T02:37:50.677Z,2.72
2023-05-14T02:40:18.549Z,2.60
2023-05-14T02:42:46.372Z,2.50
2023-05-14T02:45:14.215Z,2.55
2023-05-14T02:47:42.332Z,2.67
2023-05-14T02:50:11.231Z,2.30
2023-05-14T02:52:39.097Z,2.42
2023-05-14T02:55:07.441Z,3.60
2023-05-14T02:57:35.252Z,4.10
2023-05-14T03:00:03.361Z,4.50
2023-05-14T03:02:31.965Z,3.45
2023-05-14T03:05:00.376Z,2.97
2023-05-14T03:07:28.147Z,2.80
2023-05-14T03:09:56.417Z,2.47
2023-05-14T03:12:24.181Z,2.83
2023-05-14T03:14:51.960Z,2.78
2023-05-14T03:17:19.694Z,3.00
2023-05-14T03:19:47.548Z,2.53
2023-05-14T03:22:15.762Z,2.78
2023-05-14T03:24:43.526Z,2.67
2023-05-14T03:27:11.564Z,2.97
2023-05-14T03:29:39.303Z,2.72
2023-05-14T03:32:07.501Z,2.78
2023-05-14T03:34:35.390Z,3.15
2023-05-14T03:37:03.387Z,3.75
2023-05-14T03:39:31.423Z,3.40
2023-05-14T03:41:59.452Z,3.00
2023-05-14T03:44:27.646Z,2.53
2023-05-14T03:46:55.867Z,2.47
2023-05-14T03:49:23.749Z,4.78
2023-05-14T03:51:51.740Z,4.20
2023-05-14T03:54:19.515Z,3.00
2023-05-14T03:56:47.610Z,2.80
2023-05-14T03:59:15.482Z,3.00
2023-05-14T04:01:44.282Z,3.10
2023-05-14T04:04:12.224Z,2.65
2023-05-14T04:06:40.342Z,2.90
2023-05-14T04:09:08.148Z,2.63
2023-05-14T04:11:36.205Z,2.78
2023-05-14T04:14:04.281Z,2.92
2023-05-14T04:16:32.684Z,2.97
2023-05-14T04:19:04.720Z,2.47
2023-05-14T04:21:32.661Z,2.75
2023-05-14T04:24:00.510Z,3.03
2023-05-14T04:26:28.508Z,3.10
2023-05-14T04:28:56.338Z,2.78
2023-05-14T04:31:24.284Z,3.05
2023-05-14T04:33:52.059Z,3.70
2023-05-14T04:36:19.888Z,3.83
2023-05-14T04:38:47.724Z,3.97
2023-05-14T04:41:15.502Z,3.10
2023-05-14T04:43:43.240Z,2.80
2023-05-14T04:46:11.564Z,2.47
2023-05-14T04:48:39.650Z,2.50
2023-05-14T04:51:07.449Z,2.67
2023-05-14T04:53:35.216Z,2.40
2023-05-14T04:56:03.208Z,2.83
2023-05-14T04:58:34.585Z,2.65
2023-05-14T05:01:05.862Z,2.60
2023-05-14T05:03:33.787Z,3.05
2023-05-14T05:06:01.949Z,2.83
2023-05-14T05:08:29.653Z,2.95
2023-05-14T05:10:57.403Z,2.55
2023-05-14T05:13:25.185Z,3.00
2023-05-14T05:15:53.022Z,2.70
2023-05-14T05:18:20.794Z,2.97
2023-05-14T05:20:48.637Z,3.08
2023-05-14T05:23:16.443Z,3.22
2023-05-14T05:25:44.525Z,4.13
2023-05-14T05:28:12.392Z,4.07
2023-05-14T05:30:40.518Z,3.70
2023-05-14T05:33:08.522Z,3.22
2023-05-14T05:35:36.322Z,4.15
2023-05-14T05:38:07.285Z,4.38
2023-05-14T05:40:36.380Z,4.00
2023-05-14T05:43:04.076Z,4.05
2023-05-14T05:45:31.887Z,3.90
2023-05-14T05:47:59.786Z,4.35
2023-05-14T05:50:27.627Z,3.72
2023-05-14T05:52:55.367Z,3.90
2023-05-14T05:55:23.185Z,3.42
2023-05-14T05:57:51.354Z,3.33
2023-05-14T06:00:22.237Z,3.53
2023-05-14T06:02:50.525Z,3.50
2023-05-14T06:05:19.372Z,3.63
2023-05-14T06:07:47.341Z,4.68
2023-05-14T06:10:15.278Z,3.80
2023-05-14T06:12:43.011Z,3.78
2023-05-14T06:15:12.205Z,3.90
2023-05-14T06:17:40.164Z,3.67
2023-05-14T06:20:09.028Z,3.55
2023-05-14T06:22:36.806Z,4.00
2023-05-14T06:25:05.790Z,3.60
2023-05-14T06:27:33.834Z,3.83
2023-05-14T06:30:01.544Z,4.18
2023-05-14T06:32:29.297Z,3.90
2023-05-14T06:34:57.218Z,3.97
2023-05-14T06:37:25.113Z,3.70
2023-05-14T06:39:52.931Z,3.47
2023-05-14T06:42:20.665Z,3.22
2023-05-14T06:44:48.805Z,3.40
2023-05-14T06:47:16.752Z,3.33
2023-05-14T06:49:44.818Z,3.55
2023-05-14T06:52:12.905Z,3.00
2023-05-14T06:54:40.790Z,3.33
2023-05-14T06:57:08.619Z,3.90
2023-05-14T06:59:36.456Z,3.38
2023-05-14T07:02:06.976Z,3.88
2023-05-14T07:04:36.542Z,3.10
2023-05-14T07:07:05.700Z,3.42
2023-05-14T07:09:35.517Z,3.20
2023-05-14T07:12:03.628Z,3.10
2023-05-14T07:14:31.319Z,3.40
2023-05-14T07:16:59.106Z,3.25
2023-05-14T07:19:28.730Z,3.40
2023-05-14T07:21:57.953Z,3.38
2023-05-14T07:24:25.718Z,3.13
2023-05-14T07:26:54.542Z,3.22
2023-05-14T07:29:22.482Z,3.30
2023-05-14T07:31:52.483Z,3.60
2023-05-14T07:34:20.362Z,3.10
2023-05-14T07:36:49.299Z,2.95
2023-05-14T07:39:17.184Z,3.15
2023-05-14T07:41:44.892Z,3.10
2023-05-14T07:44:14.741Z,3.38
2023-05-14T07:49:12.110Z,3.15
2023-05-14T07:51:40.104Z,3.08
2023-05-14T07:54:08.389Z,3.40
2023-05-14T07:56:36.270Z,3.97
2023-05-14T07:59:04.118Z,3.10
2023-05-14T08:01:31.989Z,3.30
2023-05-14T08:04:00.120Z,3.58
2023-05-14T08:06:29.591Z,3.47
2023-05-14T08:08:57.336Z,3.53
2023-05-14T08:11:26.102Z,3.33
2023-05-14T08:13:53.864Z,3.55
2023-05-14T08:16:21.932Z,3.30
2023-05-14T08:18:49.892Z,3.67
2023-05-14T08:21:17.910Z,3.63
2023-05-14T08:23:45.707Z,3.50
2023-05-14T08:26:13.512Z,3.35
2023-05-14T08:28:41.242Z,3.10
2023-05-14T08:31:09.103Z,3.45
2023-05-14T08:33:36.857Z,3.40
2023-05-14T08:36:05.058Z,3.20
2023-05-14T08:38:33.162Z,3.47
2023-05-14T08:41:01.249Z,2.88
2023-05-14T08:44:04.081Z,2.53
2023-05-14T08:46:32.437Z,3.00
2023-05-14T08:49:42.760Z,3.20
2023-05-14T08:52:11.400Z,4.18
2023-05-14T08:54:40.653Z,3.70
2023-05-14T08:57:12.578Z,3.45
2023-05-14T08:59:41.179Z,3.28
2023-05-14T09:02:12.780Z,3.13
2023-05-14T09:04:41.071Z,2.97
2023-05-14T09:07:09.096Z,4.05
2023-05-14T09:09:37.886Z,3.97
2023-05-14T09:12:07.275Z,2.83
2023-05-14T09:14:34.973Z,2.90
2023-05-14T09:17:03.848Z,2.97
2023-05-14T09:19:33.543Z,3.05
2023-05-14T09:22:01.338Z,3.10
2023-05-14T09:24:29.509Z,3.15
2023-05-14T09:26:58.504Z,2.85
2023-05-14T09:29:30.252Z,3.15
2023-05-14T09:32:02.208Z,3.00
2023-05-14T09:34:32.426Z,3.35
2023-05-14T09:37:05.838Z,2.38
2023-05-14T09:39:38.860Z,3.22
2023-05-14T09:42:07.038Z,2.90
2023-05-14T09:44:36.353Z,3.45
2023-05-14T09:47:04.589Z,2.70
2023-05-14T09:49:32.292Z,3.17
2023-05-14T09:52:04.790Z,3.08
2023-05-14T09:54:34.574Z,2.70
2023-05-14T09:57:02.437Z,3.10
2023-05-14T09:59:30.141Z,2.70
2023-05-14T10:01:58.627Z,2.58
2023-05-14T10:04:26.521Z,2.80
2023-05-14T10:06:56.110Z,2.78
2023-05-14T10:09:27.957Z,2.50
2023-05-14T10:12:01.243Z,2.70
2023-05-14T10:14:43.137Z,2.30
2023-05-14T10:17:18.609Z,2.90
2023-05-14T10:19:56.238Z,2.67
2023-05-14T10:22:26.941Z,3.33
2023-05-14T10:24:55.708Z,2.85
2023-05-14T10:27:23.866Z,2.53
2023-05-14T10:29:57.249Z,2.33
2023-05-14T10:32:26.515Z,2.58
2023-05-14T10:34:54.547Z,2.42
2023-05-14T10:37:27.750Z,2.42
2023-05-14T10:40:08.212Z,2.75
2023-05-14T10:42:43.333Z,2.35
2023-05-14T10:45:14.238Z,2.60
2023-05-14T10:47:48.935Z,2.78
2023-05-14T10:50:17.448Z,2.53
2023-05-14T10:52:46.649Z,2.47
2023-05-14T10:55:17.030Z,2.70
2023-05-14T10:57:46.606Z,2.50
2023-05-14T11:00:16.173Z,2.50
2023-05-14T11:02:45.217Z,3.00
2023-05-14T11:05:17.901Z,2.70
2023-05-14T11:07:48.868Z,3.20
2023-05-14T11:10:25.965Z,3.53
2023-05-14T11:12:54.021Z,3.75
2023-05-14T11:15:23.900Z,3.92
2023-05-14T11:17:53.617Z,3.67
2023-05-14T11:20:22.113Z,3.13
2023-05-14T11:22:52.006Z,3.50
2023-05-14T11:25:20.508Z,3.20
2023-05-14T11:27:49.911Z,3.30
2023-05-14T11:30:23.040Z,2.90
2023-05-14T11:32:54.320Z,2.90
2023-05-14T11:35:22.780Z,3.20
2023-05-14T11:37:54.700Z,3.40
2023-05-14T11:40:22.681Z,2.85
2023-05-14T11:42:52.959Z,2.88
2023-05-14T11:45:29.834Z,3.10
2023-05-14T11:47:57.726Z,2.80
2023-05-14T11:50:26.369Z,3.08
2023-05-14T11:52:57.519Z,3.22
2023-05-14T11:55:27.156Z,3.30
2023-05-14T11:57:54.914Z,3.15
2023-05-14T12:00:24.567Z,3.63
2023-05-14T12:02:52.872Z,2.92
2023-05-14T12:05:21.805Z,2.80
2023-05-14T12:07:49.548Z,3.20
2023-05-14T12:10:17.415Z,2.95
2023-05-14T12:12:48.810Z,2.55
2023-05-14T12:15:17.264Z,2.90
2023-05-14T12:17:51.983Z,2.88
2023-05-14T12:20:20.257Z,2.55
2023-05-14T12:22:47.986Z,3.15
2023-05-14T12:25:15.982Z,3.08
2023-05-14T12:27:45.770Z,2.88
2023-05-14T12:32:45.909Z,3.13
2023-05-14T12:35:13.633Z,2.45
2023-05-14T12:37:42.622Z,2.90
2023-05-14T12:40:12.634Z,2.80
2023-05-14T12:42:40.398Z,2.75
2023-05-14T12:45:09.931Z,2.72
2023-05-14T12:47:39.279Z,2.67
2023-05-14T12:50:07.802Z,2.67
2023-05-14T12:52:39.198Z,2.60
2023-05-14T12:55:09.509Z,3.20
2023-05-14T12:57:39.484Z,2.78
2023-05-14T13:00:21.228Z,3.53
2023-05-14T13:02:48.996Z,2.70
2023-05-14T13:05:16.899Z,2.80
2023-05-14T13:07:44.686Z,3.20
2023-05-14T13:10:12.665Z,2.55
2023-05-14T13:12:40.756Z,2.90
2023-05-14T13:15:09.410Z,2.80
2023-05-14T13:17:37.207Z,2.60
2023-05-14T13:20:08.287Z,2.80
2023-05-14T13:22:36.166Z,2.70
2023-05-14T13:25:04.884Z,2.28
2023-05-14T13:27:33.774Z,2.67
2023-05-14T13:30:01.536Z,2.90
2023-05-14T13:32:29.297Z,2.38
2023-05-14T13:34:57.022Z,2.65
2023-05-14T13:37:25.800Z,2.30
2023-05-14T13:39:53.631Z,2.72
2023-05-14T13:42:21.367Z,2.38
2023-05-14T13:44:49.636Z,2.15
2023-05-14T13:47:17.494Z,2.47
2023-05-14T13:49:45.375Z,2.28
2023-05-14T13:52:13.149Z,2.42
2023-05-14T13:54:40.920Z,2.58
2023-05-14T13:57:08.669Z,2.50
2023-05-14T13:59:36.920Z,2.80
2023-05-14T14:02:05.851Z,2.33
2023-05-14T14:04:33.756Z,2.10
2023-05-14T14:07:01.479Z,2.38
2023-05-14T14:09:29.377Z,2.17
2023-05-14T14:11:57.439Z,2.10
2023-05-14T14:14:25.254Z,2.30
2023-05-14T14:16:53.977Z,2.00
2023-05-14T14:19:21.761Z,2.45
2023-05-14T14:24:22.256Z,2.30
2023-05-14T14:26:49.933Z,1.73
2023-05-14T14:29:17.688Z,2.20
2023-05-14T14:31:45.469Z,2.25
2023-05-14T14:34:13.239Z,2.10
2023-05-14T14:36:40.912Z,2.30
2023-05-14T14:39:08.646Z,2.20
2023-05-14T14:41:36.536Z,2.50
2023-05-14T14:44:04.436Z,2.20
2023-05-14T14:46:33.459Z,2.08
2023-05-14T14:49:01.309Z,2.58
2023-05-14T14:51:30.123Z,2.17
2023-05-14T14:53:57.915Z,2.63
2023-05-14T14:56:27.512Z,2.78
2023-05-14T14:58:59.155Z,2.20
2023-05-14T15:01:26.970Z,3.60
2023-05-14T15:03:55.019Z,3.15
2023-05-14T15:06:22.780Z,2.85
2023-05-14T15:08:50.660Z,2.58
2023-05-14T15:11:18.704Z,2.53
2023-05-14T15:13:46.877Z,2.50
2023-05-14T15:16:15.560Z,2.35
2023-05-14T15:18:43.347Z,2.58
2023-05-14T15:21:11.252Z,2.85
2023-05-14T15:23:39.035Z,2.70
2023-05-14T15:26:06.770Z,2.30
2023-05-14T15:28:34.566Z,2.38
2023-05-14T15:31:02.613Z,2.40
2023-05-14T15:33:30.591Z,2.10
2023-05-14T15:35:58.471Z,2.63
2023-05-14T15:38:26.383Z,2.70
2023-05-14T15:40:54.041Z,2.20
2023-05-14T15:43:21.886Z,2.05
2023-05-14T15:45:50.427Z,2.25
2023-05-14T15:48:18.183Z,2.10
2023-05-14T15:50:49.753Z,1.92
2023-05-14T15:53:17.938Z,2.35
2023-05-14T15:55:47.776Z,2.33
2023-05-14T15:58:15.538Z,3.25
2023-05-14T16:00:43.261Z,3.25
2023-05-14T16:03:12.337Z,5.45
2023-05-14T16:05:40.247Z,5.70
2023-05-14T16:08:08.125Z,6.78
2023-05-14T16:10:35.899Z,3.92
2023-05-14T16:13:03.737Z,2.72
2023-05-14T16:15:31.506Z,2.95
2023-05-14T16:18:01.550Z,2.55
2023-05-14T16:20:29.245Z,2.40
2023-05-14T16:22:56.948Z,2.55
2023-05-14T16:25:25.969Z,2.42
2023-05-14T16:27:54.328Z,2.30
2023-05-14T16:30:22.259Z,2.25
2023-05-14T16:32:50.280Z,2.10
2023-05-14T16:35:18.122Z,2.00
2023-05-14T16:37:45.936Z,2.10
2023-05-14T16:40:16.039Z,2.30
2023-05-14T16:42:47.777Z,2.40
2023-05-14T16:45:16.960Z,2.30
2023-05-14T16:47:47.447Z,1.92
2023-05-14T16:50:15.387Z,2.03
2023-05-14T16:52:43.164Z,2.10
2023-05-14T16:55:11.026Z,2.15
2023-05-14T16:57:38.883Z,2.00
2023-05-14T17:00:07.728Z,1.80
2023-05-14T17:02:35.422Z,1.85
2023-05-14T17:05:04.054Z,1.83
2023-05-14T17:07:31.989Z,1.80
2023-05-14T17:10:00.673Z,1.90
2023-05-14T17:12:28.445Z,2.13
2023-05-14T17:14:56.157Z,2.25
2023-05-14T17:17:24.883Z,2.00
2023-05-14T17:19:52.591Z,1.90
2023-05-14T17:22:20.306Z,1.90
2023-05-14T17:24:48.570Z,2.03
2023-05-14T17:27:16.834Z,2.17
2023-05-14T17:29:44.788Z,2.05
2023-05-14T17:32:13.046Z,2.10
2023-05-14T17:34:41.148Z,2.45
2023-05-14T17:37:09.280Z,2.10
2023-05-14T17:39:37.100Z,1.77
2023-05-14T17:42:06.359Z,2.10
2023-05-14T17:44:34.194Z,1.88
2023-05-14T17:47:03.093Z,1.95
2023-05-14T17:49:31.202Z,2.10
2023-05-14T17:52:01.422Z,1.70
2023-05-14T17:54:31.265Z,1.45
2023-05-14T17:56:59.031Z,1.95
2023-05-14T17:59:26.909Z,2.05
2023-05-14T18:01:54.630Z,3.70
2023-05-14T18:04:22.320Z,3.45
2023-05-14T18:06:50.357Z,2.60
2023-05-14T18:09:18.078Z,1.70
2023-05-14T18:11:45.910Z,1.50
2023-05-14T18:14:13.657Z,1.30
2023-05-14T18:16:41.592Z,1.35
2023-05-14T18:19:09.449Z,1.38
2023-05-14T18:21:37.245Z,1.02
2023-05-14T18:24:09.804Z,1.20
2023-05-14T18:26:37.566Z,1.25
2023-05-14T18:29:05.398Z,1.30
2023-05-14T18:31:35.045Z,1.20
2023-05-14T18:34:03.113Z,1.40
2023-05-14T18:36:30.952Z,1.67
2023-05-14T18:39:02.554Z,1.70
2023-05-14T18:41:30.342Z,1.55
2023-05-14T18:43:58.075Z,2.00
2023-05-14T18:46:25.941Z,1.70
2023-05-14T18:48:54.622Z,1.70
2023-05-14T18:51:22.434Z,2.20
2023-05-14T18:53:50.228Z,2.50
2023-05-14T18:56:17.988Z,2.45
2023-05-14T18:58:45.663Z,2.38
2023-05-14T19:01:15.121Z,1.90
2023-05-14T19:03:43.006Z,1.90
2023-05-14T19:06:10.950Z,1.70
2023-05-14T19:08:38.745Z,1.67
2023-05-14T19:11:06.504Z,1.60
2023-05-14T19:13:34.244Z,1.38
2023-05-14T19:16:02.252Z,1.38
2023-05-14T19:18:32.164Z,1.48
2023-05-14T19:20:59.987Z,1.40
2023-05-14T19:23:27.752Z,1.38
2023-05-14T19:25:55.868Z,1.33
2023-05-14T19:28:23.611Z,1.50
2023-05-14T19:30:52.278Z,1.30
2023-05-14T19:33:20.117Z,1.40
2023-05-14T19:35:49.052Z,1.60
2023-05-14T19:38:17.206Z,1.60
2023-05-14T19:40:45.209Z,1.55
2023-05-14T19:43:13.091Z,1.60
2023-05-14T19:45:42.633Z,1.90
2023-05-14T19:48:12.429Z,1.70
2023-05-14T19:50:41.466Z,1.80
2023-05-14T19:53:11.317Z,1.50
2023-05-14T19:55:39.145Z,1.63
2023-05-14T19:58:08.656Z,1.65
2023-05-14T20:00:37.079Z,1.70
2023-05-14T20:03:05.852Z,1.77
2023-05-14T20:05:37.027Z,1.70
2023-05-14T20:08:08.037Z,1.73
2023-05-14T20:10:35.901Z,1.80
2023-05-14T20:13:04.125Z,1.88
2023-05-14T20:15:31.938Z,1.92
2023-05-14T20:18:01.014Z,3.53
2023-05-14T20:20:33.034Z,2.85
2023-05-14T20:23:01.436Z,2.33
2023-05-14T20:25:29.525Z,2.20
2023-05-14T20:27:57.466Z,1.80
2023-05-14T20:30:25.435Z,2.40
2023-05-14T20:32:53.351Z,2.30
2023-05-14T20:35:21.117Z,2.13
2023-05-14T20:37:49.498Z,1.98
2023-05-14T20:40:17.443Z,2.33
2023-05-14T20:42:45.932Z,1.80
2023-05-14T20:45:13.689Z,1.75
2023-05-14T20:47:41.451Z,1.75
2023-05-14T20:50:09.587Z,1.83
2023-05-14T20:52:37.284Z,1.80
2023-05-14T20:55:07.479Z,2.08
2023-05-14T20:57:35.550Z,2.45
2023-05-14T21:00:08.103Z,2.60
2023-05-14T21:02:36.375Z,2.60
2023-05-14T21:05:04.758Z,2.10
2023-05-14T21:07:32.551Z,2.10
2023-05-14T21:10:01.050Z,2.17
2023-05-14T21:12:28.747Z,2.00
2023-05-14T21:14:56.440Z,2.28
2023-05-14T21:17:24.211Z,1.90
2023-05-14T21:19:51.949Z,2.30
2023-05-14T21:22:19.686Z,1.95
2023-05-14T21:24:47.468Z,2.20
2023-05-14T21:27:15.305Z,2.38
2023-05-14T21:29:44.843Z,2.20
2023-05-14T21:32:12.756Z,2.20
2023-05-14T21:34:40.543Z,2.60
2023-05-14T21:37:08.353Z,2.00
2023-05-14T21:39:36.042Z,2.05
2023-05-14T21:42:04.126Z,2.38
2023-05-14T21:44:31.794Z,2.08
2023-05-14T21:46:59.707Z,1.90
2023-05-14T21:49:27.385Z,2.08
2023-05-14T21:51:55.193Z,2.00
2023-05-14T21:54:22.899Z,2.00
2023-05-14T21:56:50.951Z,2.50
2023-05-14T21:59:18.772Z,2.35
2023-05-14T22:02:05.333Z,2.25
2023-05-14T22:04:35.278Z,2.40
2023-05-14T22:07:03.599Z,2.25
2023-05-14T22:09:31.464Z,2.17
2023-05-14T22:11:59.702Z,2.20
2023-05-14T22:14:27.522Z,2.40
2023-05-14T22:16:55.542Z,2.35
2023-05-14T22:19:23.447Z,2.35
2023-05-14T22:21:51.204Z,2.00
2023-05-14T22:24:18.962Z,2.63
2023-05-14T22:26:46.717Z,2.50
2023-05-14T22:29:14.508Z,2.53
2023-05-14T22:31:42.309Z,2.50
2023-05-14T22:34:10.475Z,2.60
2023-05-14T22:36:38.222Z,2.58
2023-05-14T22:39:06.104Z,2.60
2023-05-14T22:41:33.889Z,2.40
2023-05-14T22:44:01.715Z,2.53
2023-05-14T22:46:29.896Z,2.78
2023-05-14T22:48:57.777Z,2.78
2023-05-14T22:51:25.472Z,2.75
2023-05-14T22:53:54.041Z,2.75
2023-05-14T22:56:22.143Z,3.03
2023-05-14T22:58:49.840Z,2.90
2023-05-14T23:01:17.568Z,2.80
2023-05-14T23:03:45.290Z,2.47
2023-05-14T23:06:14.732Z,2.70
2023-05-14T23:08:42.499Z,2.55
2023-05-14T23:11:10.300Z,2.60
2023-05-14T23:13:38.331Z,2.42
2023-05-14T23:16:06.192Z,2.75
2023-05-14T23:18:34.157Z,2.65
2023-05-14T23:21:02.091Z,2.60
2023-05-14T23:23:29.790Z,2.38
2023-05-14T23:25:57.647Z,2.75
2023-05-14T23:28:25.327Z,2.75
2023-05-14T23:30:53.044Z,2.65
2023-05-14T23:33:20.756Z,2.70
2023-05-14T23:35:49.024Z,2.88
2023-05-14T23:38:17.126Z,2.60
2023-05-14T23:40:44.867Z,2.90
2023-05-14T23:43:12.669Z,2.95
2023-05-14T23:45:40.679Z,2.78
2023-05-14T23:48:08.572Z,2.70
2023-05-14T23:50:36.975Z,3.13
2023-05-14T23:53:04.968Z,3.00
2023-05-14T23:55:32.804Z,2.92
2023-05-14T23:58:00.643Z,3.00
